createdAt,value
2023-01-21T00:00:59.321Z,5.63
2023-01-21T00:03:26.893Z,6.24
2023-01-21T00:05:54.135Z,6.36
2023-01-21T00:08:21.300Z,6.16
2023-01-21T00:10:48.740Z,6.61
2023-01-21T00:13:15.992Z,6.23
2023-01-21T00:15:43.275Z,6.62
2023-01-21T00:18:10.903Z,7.01
2023-01-21T00:20:38.248Z,6.93
2023-01-21T00:23:05.450Z,6.57
2023-01-21T00:25:32.912Z,7.07
2023-01-21T00:28:00.620Z,6.55
2023-01-21T00:30:27.890Z,6.82
2023-01-21T00:32:55.312Z,7.37
2023-01-21T00:35:22.537Z,7.19
2023-01-21T00:37:51.094Z,6.66
2023-01-21T00:40:18.887Z,6.86
2023-01-21T00:42:46.265Z,6.71
2023-01-21T00:45:13.543Z,6.43
2023-01-21T00:47:41.028Z,6.77
2023-01-21T00:50:09.021Z,5.92
2023-01-21T00:52:36.174Z,6.34
2023-01-21T00:55:03.698Z,6.66
2023-01-21T00:57:30.914Z,6.33
2023-01-21T00:59:58.179Z,6.70
2023-01-21T01:02:25.683Z,6.62
2023-01-21T01:04:52.902Z,6.79
2023-01-21T01:07:20.116Z,6.87
2023-01-21T01:09:47.529Z,7.17
2023-01-21T01:12:14.776Z,7.43
2023-01-21T01:14:42.313Z,7.03
2023-01-21T01:17:09.803Z,7.01
2023-01-21T01:19:36.958Z,7.50
2023-01-21T01:22:04.175Z,7.44
2023-01-21T01:24:31.686Z,7.52
2023-01-21T01:26:58.864Z,7.28
2023-01-21T01:29:26.304Z,7.71
2023-01-21T01:31:53.831Z,7.76
2023-01-21T01:34:21.009Z,7.75
2023-01-21T01:36:48.783Z,7.78
2023-01-21T01:39:16.230Z,7.90
2023-01-21T01:41:43.711Z,7.28
2023-01-21T01:44:29.718Z,7.23
2023-01-21T01:46:57.169Z,7.84
2023-01-21T01:49:24.386Z,7.83
2023-01-21T01:51:59.152Z,7.50
2023-01-21T01:54:30.412Z,7.83
2023-01-21T01:56:58.333Z,7.89
2023-01-21T01:59:25.585Z,8.13
2023-01-21T02:01:53.079Z,8.14
2023-01-21T02:04:21.364Z,8.16
2023-01-21T02:06:49.117Z,8.42
2023-01-21T02:09:16.298Z,7.80
2023-01-21T02:11:43.481Z,8.22
2023-01-21T02:14:10.913Z,8.10
2023-01-21T02:16:41.487Z,7.87
2023-01-21T02:19:23.775Z,7.88
2023-01-21T02:21:55.764Z,8.05
2023-01-21T02:24:32.041Z,8.12
2023-01-21T02:27:09.204Z,8.27
2023-01-21T02:29:55.446Z,8.23
2023-01-21T02:32:41.901Z,8.21
2023-01-21T02:35:15.049Z,8.11
2023-01-21T02:37:50.102Z,7.66
2023-01-21T02:40:26.444Z,7.98
2023-01-21T02:43:09.424Z,7.52
2023-01-21T02:45:47.460Z,7.60
2023-01-21T02:48:14.883Z,7.83
2023-01-21T02:50:45.611Z,7.86
2023-01-21T02:53:29.109Z,7.70
2023-01-21T02:55:57.543Z,7.98
2023-01-21T02:58:25.973Z,7.87
2023-01-21T03:01:16.465Z,7.63
2023-01-21T03:03:47.014Z,8.25
2023-01-21T03:06:35.819Z,8.21
2023-01-21T03:09:13.528Z,7.78
2023-01-21T03:11:40.920Z,8.19
2023-01-21T03:14:33.245Z,7.64
2023-01-21T03:17:04.610Z,7.72
2023-01-21T03:19:33.552Z,7.91
2023-01-21T03:22:01.986Z,7.91
2023-01-21T03:24:29.151Z,8.30
2023-01-21T03:26:58.999Z,8.55
2023-01-21T03:29:26.899Z,8.47
2023-01-21T03:31:55.582Z,8.33
2023-01-21T03:34:23.826Z,7.92
2023-01-21T03:36:51.001Z,8.55
2023-01-21T03:39:19.526Z,8.28
2023-01-21T03:41:47.302Z,8.39
2023-01-21T03:44:14.538Z,7.93
2023-01-21T03:46:44.482Z,8.25
2023-01-21T03:49:16.290Z,7.24
2023-01-21T03:51:45.517Z,7.93
2023-01-21T03:54:12.961Z,8.08
2023-01-21T03:56:40.091Z,8.06
2023-01-21T03:59:07.595Z,7.89
2023-01-21T04:01:35.058Z,8.19
2023-01-21T04:04:02.550Z,7.97
2023-01-21T04:06:29.695Z,8.20
2023-01-21T04:08:56.942Z,8.29
2023-01-21T04:11:24.566Z,8.23
2023-01-21T04:13:51.794Z,8.21
2023-01-21T04:16:18.933Z,8.32
2023-01-21T04:18:47.662Z,8.07
2023-01-21T04:21:15.054Z,8.27
2023-01-21T04:23:42.235Z,8.45
2023-01-21T04:26:09.660Z,8.66
2023-01-21T04:28:36.888Z,8.58
2023-01-21T04:31:04.086Z,8.51
2023-01-21T04:33:31.561Z,8.57
2023-01-21T04:35:59.593Z,8.47
2023-01-21T04:38:27.046Z,8.68
2023-01-21T04:40:54.511Z,8.92
2023-01-21T04:43:21.700Z,8.83
2023-01-21T04:45:50.154Z,8.87
2023-01-21T04:48:17.678Z,8.61
2023-01-21T04:50:46.101Z,8.73
2023-01-21T04:53:13.302Z,8.80
2023-01-21T04:55:40.727Z,8.72
2023-01-21T04:58:07.931Z,8.74
2023-01-21T05:00:35.154Z,8.49
2023-01-21T05:03:02.579Z,8.40
2023-01-21T05:05:30.020Z,8.71
2023-01-21T05:07:57.208Z,8.38
2023-01-21T05:10:24.643Z,8.32
2023-01-21T05:12:51.817Z,8.30
2023-01-21T05:15:19.149Z,8.30
2023-01-21T05:17:46.643Z,8.36
2023-01-21T05:20:13.828Z,8.17
2023-01-21T05:22:40.961Z,8.28
2023-01-21T05:25:08.637Z,7.83
2023-01-21T05:27:35.925Z,8.28
2023-01-21T05:30:03.141Z,7.99
2023-01-21T05:32:30.745Z,8.48
2023-01-21T05:34:57.944Z,8.31
2023-01-21T05:37:25.066Z,8.20
2023-01-21T05:39:52.559Z,8.51
2023-01-21T05:42:19.720Z,8.57
2023-01-21T05:44:46.865Z,8.60
2023-01-21T05:47:14.296Z,8.39
2023-01-21T05:49:41.437Z,8.60
2023-01-21T05:52:08.606Z,8.52
2023-01-21T05:54:36.042Z,8.73
2023-01-21T05:57:03.256Z,8.11
2023-01-21T05:59:30.649Z,7.98
2023-01-21T06:01:58.122Z,8.54
2023-01-21T06:04:30.518Z,8.33
2023-01-21T06:06:57.993Z,8.67
2023-01-21T06:09:25.506Z,8.96
2023-01-21T06:11:52.738Z,8.96
2023-01-21T06:14:19.995Z,8.75
2023-01-21T06:16:47.401Z,9.03
2023-01-21T06:19:14.644Z,9.02
2023-01-21T06:21:41.871Z,8.79
2023-01-21T06:24:09.340Z,8.75
2023-01-21T06:26:36.547Z,8.72
2023-01-21T06:29:03.755Z,8.62
2023-01-21T06:31:31.717Z,8.69
2023-01-21T06:33:59.199Z,8.80
2023-01-21T06:36:26.332Z,8.83
2023-01-21T06:38:53.819Z,8.59
2023-01-21T06:41:20.971Z,8.71
2023-01-21T06:43:48.162Z,8.90
2023-01-21T06:46:15.683Z,8.56
2023-01-21T06:48:43.307Z,8.90
2023-01-21T06:51:10.553Z,8.96
2023-01-21T06:53:38.106Z,8.92
2023-01-21T06:56:05.345Z,8.94
2023-01-21T06:58:32.526Z,9.07
2023-01-21T07:01:00.141Z,8.96
2023-01-21T07:03:27.315Z,9.22
2023-01-21T07:05:54.529Z,9.07
2023-01-21T07:08:22.059Z,9.15
2023-01-21T07:10:49.275Z,9.02
2023-01-21T07:13:16.430Z,9.10
2023-01-21T07:15:43.926Z,8.80
2023-01-21T07:18:11.107Z,8.83
2023-01-21T07:20:40.920Z,8.99
2023-01-21T07:23:08.496Z,9.01
2023-01-21T07:25:37.415Z,9.23
2023-01-21T07:28:04.670Z,9.27
2023-01-21T07:30:32.164Z,9.32
2023-01-21T07:33:04.410Z,9.10
2023-01-21T07:35:32.051Z,9.43
2023-01-21T07:37:59.228Z,9.39
2023-01-21T07:40:26.463Z,9.49
2023-01-21T07:42:54.505Z,9.26
2023-01-21T07:45:22.153Z,9.37
2023-01-21T07:47:49.328Z,9.48
2023-01-21T07:50:17.015Z,9.41
2023-01-21T07:52:44.157Z,9.43
2023-01-21T07:55:12.733Z,9.45
2023-01-21T07:57:40.288Z,9.38
2023-01-21T08:00:07.756Z,9.26
2023-01-21T08:02:38.863Z,9.25
2023-01-21T08:05:06.858Z,9.33
2023-01-21T08:07:34.034Z,9.71
2023-01-21T08:10:01.198Z,9.70
2023-01-21T08:12:28.648Z,9.38
2023-01-21T08:14:55.811Z,9.73
2023-01-21T08:17:23.021Z,9.73
2023-01-21T08:19:50.590Z,9.55
2023-01-21T08:22:17.756Z,9.56
2023-01-21T08:24:44.931Z,9.48
2023-01-21T08:27:12.351Z,9.84
2023-01-21T08:29:39.553Z,9.65
2023-01-21T08:32:06.735Z,9.85
2023-01-21T08:34:34.190Z,9.74
2023-01-21T08:37:01.518Z,9.95
2023-01-21T08:39:28.797Z,9.91
2023-01-21T08:41:56.230Z,9.94
2023-01-21T08:44:23.466Z,9.92
2023-01-21T08:46:50.648Z,9.91
2023-01-21T08:49:18.081Z,9.87
2023-01-21T08:51:45.433Z,9.56
2023-01-21T08:54:12.589Z,9.80
2023-01-21T08:56:40.046Z,9.88
2023-01-21T08:59:07.295Z,9.50
2023-01-21T09:01:36.218Z,9.80
2023-01-21T09:04:03.711Z,9.75
2023-01-21T09:06:30.867Z,9.78
2023-01-21T09:08:58.418Z,10.02
2023-01-21T09:11:26.672Z,9.54
2023-01-21T09:13:53.890Z,9.85
2023-01-21T09:16:21.598Z,10.03
2023-01-21T09:18:49.170Z,10.03
2023-01-21T09:21:16.562Z,10.18
2023-01-21T09:23:44.465Z,10.22
2023-01-21T09:26:21.442Z,10.34
2023-01-21T09:28:55.401Z,10.38
2023-01-21T09:31:23.892Z,10.45
2023-01-21T09:33:52.250Z,10.42
2023-01-21T09:36:20.519Z,10.57
2023-01-21T09:38:48.360Z,10.57
2023-01-21T09:41:24.125Z,10.30
2023-01-21T09:43:59.596Z,10.52
2023-01-21T09:46:38.189Z,10.67
2023-01-21T09:49:06.548Z,10.49
2023-01-21T09:51:47.510Z,10.12
2023-01-21T09:54:19.749Z,10.17
2023-01-21T09:57:05.665Z,10.15
2023-01-21T09:59:35.960Z,10.31
2023-01-21T10:02:03.633Z,10.74
2023-01-21T10:04:36.708Z,10.85
2023-01-21T10:07:07.930Z,10.75
2023-01-21T10:09:38.543Z,10.89
2023-01-21T10:12:12.270Z,10.91
2023-01-21T10:14:39.675Z,10.68
2023-01-21T10:17:06.833Z,10.61
2023-01-21T10:19:36.475Z,10.83
2023-01-21T10:22:05.539Z,10.73
2023-01-21T10:24:32.678Z,10.63
2023-01-21T10:26:59.814Z,10.35
2023-01-21T10:29:27.333Z,10.76
2023-01-21T10:31:59.349Z,10.81
2023-01-21T10:34:30.657Z,10.95
2023-01-21T10:36:57.816Z,10.87
2023-01-21T10:39:39.392Z,10.82
2023-01-21T10:42:06.784Z,10.80
2023-01-21T10:44:52.300Z,10.64
2023-01-21T10:47:38.506Z,10.94
2023-01-21T10:50:18.838Z,10.66
2023-01-21T10:52:48.432Z,10.88
2023-01-21T10:55:30.936Z,10.98
2023-01-21T10:58:02.181Z,11.02
2023-01-21T11:00:39.535Z,11.00
2023-01-21T11:03:25.818Z,10.96
2023-01-21T11:05:52.997Z,10.69
2023-01-21T11:08:21.489Z,10.90
2023-01-21T11:10:49.656Z,11.18
2023-01-21T11:13:16.841Z,11.16
2023-01-21T11:15:48.547Z,10.99
2023-01-21T11:18:34.432Z,10.60
2023-01-21T11:21:28.027Z,10.85
2023-01-21T11:23:56.055Z,10.77
2023-01-21T11:26:28.330Z,10.66
2023-01-21T11:29:14.620Z,10.75
2023-01-21T11:31:42.566Z,10.93
2023-01-21T11:34:13.813Z,10.70
2023-01-21T11:37:01.512Z,10.78
2023-01-21T11:39:29.720Z,10.42
2023-01-21T11:41:57.555Z,10.61
2023-01-21T11:44:24.933Z,10.81
2023-01-21T11:46:52.448Z,10.75
2023-01-21T11:49:24.238Z,10.78
2023-01-21T11:51:51.663Z,10.75
2023-01-21T11:54:22.725Z,10.46
2023-01-21T11:56:52.724Z,10.34
2023-01-21T11:59:25.158Z,10.73
2023-01-21T12:02:00.331Z,10.67
2023-01-21T12:04:27.911Z,10.69
2023-01-21T12:06:58.101Z,9.95
2023-01-21T12:09:25.372Z,9.95
2023-01-21T12:12:07.953Z,10.53
2023-01-21T12:14:41.506Z,10.62
2023-01-21T12:17:17.921Z,10.47
2023-01-21T12:20:03.448Z,10.55
2023-01-21T12:22:49.534Z,10.37
2023-01-21T12:25:23.062Z,10.42
2023-01-21T12:28:05.708Z,10.59
2023-01-21T12:30:45.997Z,10.20
2023-01-21T12:33:33.490Z,10.68
2023-01-21T12:36:01.978Z,10.52
2023-01-21T12:38:55.858Z,10.66
2023-01-21T12:41:23.903Z,10.55
2023-01-21T12:43:52.741Z,10.38
2023-01-21T12:46:23.033Z,10.42
2023-01-21T12:49:07.864Z,9.22
2023-01-21T12:51:36.899Z,9.04
2023-01-21T12:54:14.925Z,8.08
2023-01-21T12:56:43.927Z,7.68
2023-01-21T12:59:11.092Z,7.32
2023-01-21T13:01:38.235Z,7.23
2023-01-21T13:04:23.848Z,7.29
2023-01-21T13:06:54.449Z,7.02
2023-01-21T13:09:25.319Z,6.96
2023-01-21T13:11:53.561Z,7.37
2023-01-21T13:14:23.855Z,6.92
2023-01-21T13:16:52.997Z,6.89
2023-01-21T13:19:20.166Z,6.72
2023-01-21T13:21:51.961Z,6.56
2023-01-21T13:24:22.499Z,7.03
2023-01-21T13:27:05.087Z,6.39
2023-01-21T13:29:32.505Z,6.70
2023-01-21T13:31:59.767Z,7.34
2023-01-21T13:34:36.878Z,6.84
2023-01-21T13:37:23.949Z,7.31
2023-01-21T13:40:11.907Z,6.63
2023-01-21T13:42:45.366Z,6.75
2023-01-21T13:45:15.814Z,7.04
2023-01-21T13:48:01.900Z,6.94
2023-01-21T13:50:38.524Z,6.72
2023-01-21T13:53:13.761Z,6.25
2023-01-21T13:55:45.380Z,6.61
2023-01-21T13:58:13.521Z,7.42
2023-01-21T14:00:40.755Z,7.41
2023-01-21T14:03:23.360Z,7.32
2023-01-21T14:06:05.962Z,6.96
2023-01-21T14:08:34.877Z,7.02
2023-01-21T14:11:04.153Z,7.23
2023-01-21T14:14:09.828Z,7.17
2023-01-21T14:16:40.153Z,6.34
2023-01-21T14:19:19.157Z,6.69
2023-01-21T14:21:49.775Z,6.93
2023-01-21T14:24:26.297Z,6.29
2023-01-21T14:26:53.842Z,6.41
2023-01-21T14:29:23.786Z,6.56
2023-01-21T14:31:52.136Z,5.30
2023-01-21T14:34:27.708Z,5.65
2023-01-21T14:36:57.899Z,6.45
2023-01-21T14:39:31.256Z,6.47
2023-01-21T14:42:04.561Z,6.08
2023-01-21T14:44:38.518Z,6.79
2023-01-21T14:47:11.693Z,6.24
2023-01-21T14:49:39.743Z,6.54
2023-01-21T14:52:06.941Z,5.87
2023-01-21T14:54:34.158Z,5.63
2023-01-21T14:57:13.784Z,5.66
2023-01-21T14:59:46.297Z,5.12
2023-01-21T15:02:26.344Z,5.87
2023-01-21T15:04:57.076Z,5.55
2023-01-21T15:07:25.426Z,5.59
2023-01-21T15:09:56.216Z,5.99
2023-01-21T15:12:30.379Z,6.09
2023-01-21T15:14:59.804Z,6.44
2023-01-21T15:17:48.812Z,6.38
2023-01-21T15:20:35.069Z,6.12
2023-01-21T15:23:23.411Z,6.07
2023-01-21T15:26:09.346Z,6.10
2023-01-21T15:28:45.935Z,5.70
2023-01-21T15:31:33.431Z,5.79
2023-01-21T15:34:04.381Z,5.81
2023-01-21T15:36:34.247Z,5.57
2023-01-21T15:39:02.618Z,5.28
2023-01-21T15:41:39.632Z,5.28
2023-01-21T15:44:11.107Z,5.47
2023-01-21T15:46:48.193Z,5.80
2023-01-21T15:49:31.182Z,5.86
2023-01-21T15:52:23.777Z,5.75
2023-01-21T15:55:03.015Z,5.90
2023-01-21T15:57:42.627Z,6.13
2023-01-21T16:00:17.981Z,5.11
2023-01-21T16:02:51.508Z,5.21
2023-01-21T16:05:21.109Z,5.60
2023-01-21T16:07:51.525Z,5.81
2023-01-21T16:10:42.163Z,6.20
2023-01-21T16:13:16.862Z,6.80
2023-01-21T16:16:02.414Z,7.26
2023-01-21T16:18:33.084Z,7.37
2023-01-21T16:21:00.565Z,7.42
2023-01-21T16:23:28.699Z,7.82
2023-01-21T16:25:56.384Z,8.13
2023-01-21T16:28:23.669Z,8.27
2023-01-21T16:30:55.275Z,8.35
2023-01-21T16:33:23.634Z,8.28
2023-01-21T16:35:51.641Z,8.38
2023-01-21T16:38:19.755Z,8.74
2023-01-21T16:40:51.338Z,8.55
2023-01-21T16:43:21.701Z,8.29
2023-01-21T16:45:53.612Z,8.66
2023-01-21T16:48:25.075Z,8.86
2023-01-21T16:50:52.749Z,8.95
2023-01-21T16:53:20.565Z,8.96
2023-01-21T16:55:48.750Z,8.62
2023-01-21T16:58:22.214Z,9.17
2023-01-21T17:00:57.867Z,9.00
2023-01-21T17:03:25.466Z,9.00
2023-01-21T17:05:53.419Z,8.96
2023-01-21T17:08:20.818Z,8.65
2023-01-21T17:10:58.660Z,8.79
2023-01-21T17:13:26.208Z,9.02
2023-01-21T17:15:58.550Z,8.59
2023-01-21T17:18:27.233Z,8.73
2023-01-21T17:20:54.834Z,8.97
2023-01-21T17:23:23.058Z,9.06
2023-01-21T17:25:52.573Z,8.40
2023-01-21T17:28:30.514Z,8.95
2023-01-21T17:31:16.453Z,9.02
2023-01-21T17:33:44.000Z,9.19
2023-01-21T17:36:12.222Z,9.32
2023-01-21T17:38:43.453Z,8.96
2023-01-21T17:41:26.852Z,8.56
2023-01-21T17:43:55.721Z,8.67
2023-01-21T17:46:23.756Z,8.64
2023-01-21T17:48:52.094Z,8.61
2023-01-21T17:51:20.787Z,8.54
2023-01-21T17:54:06.651Z,8.80
2023-01-21T17:56:52.734Z,9.21
2023-01-21T17:59:26.479Z,9.29
2023-01-21T18:01:55.021Z,8.81
2023-01-21T18:04:23.161Z,9.45
2023-01-21T18:06:52.166Z,9.55
2023-01-21T18:09:19.802Z,9.44
2023-01-21T18:11:51.125Z,9.33
2023-01-21T18:14:19.251Z,9.59
2023-01-21T18:16:47.155Z,9.65
2023-01-21T18:19:33.873Z,9.28
2023-01-21T18:22:02.160Z,9.42
2023-01-21T18:24:30.051Z,9.55
2023-01-21T18:26:57.885Z,9.50
2023-01-21T18:29:30.339Z,9.60
2023-01-21T18:31:58.112Z,8.94
2023-01-21T18:34:25.843Z,9.30
2023-01-21T18:36:53.173Z,9.48
2023-01-21T18:39:20.737Z,9.23
2023-01-21T18:41:48.374Z,9.21
2023-01-21T18:44:16.282Z,9.43
2023-01-21T18:46:43.775Z,9.63
2023-01-21T18:49:16.437Z,9.44
2023-01-21T18:51:43.793Z,9.55
2023-01-21T18:54:11.495Z,9.03
2023-01-21T18:56:39.017Z,9.69
2023-01-21T18:59:10.689Z,9.54
2023-01-21T19:01:38.148Z,9.33
2023-01-21T19:04:09.542Z,9.78
2023-01-21T19:06:37.216Z,9.91
2023-01-21T19:09:04.629Z,9.76
2023-01-21T19:11:33.314Z,9.87
2023-01-21T19:14:02.082Z,9.93
2023-01-21T19:16:29.511Z,9.90
2023-01-21T19:18:57.137Z,9.65
2023-01-21T19:21:24.600Z,9.61
2023-01-21T19:23:52.076Z,9.68
2023-01-21T19:26:19.764Z,9.70
2023-01-21T19:28:47.159Z,9.65
2023-01-21T19:31:14.668Z,9.71
2023-01-21T19:33:45.608Z,9.87
2023-01-21T19:36:15.947Z,9.87
2023-01-21T19:38:45.588Z,9.92
2023-01-21T19:41:12.947Z,9.92
2023-01-21T19:43:41.269Z,9.72
2023-01-21T19:46:12.569Z,9.83
2023-01-21T19:48:40.155Z,9.31
2023-01-21T19:51:07.573Z,9.78
2023-01-21T19:53:35.278Z,9.87
2023-01-21T19:56:04.012Z,9.69
2023-01-21T19:58:31.417Z,9.79
2023-01-21T20:00:58.965Z,9.69
2023-01-21T20:03:27.909Z,9.67
2023-01-21T20:06:01.681Z,9.87
2023-01-21T20:08:30.596Z,9.54
2023-01-21T20:10:58.027Z,9.78
2023-01-21T20:13:26.104Z,9.75
2023-01-21T20:15:53.798Z,9.23
2023-01-21T20:18:22.493Z,9.60
2023-01-21T20:20:49.822Z,9.44
2023-01-21T20:23:17.754Z,9.57
2023-01-21T20:25:45.778Z,9.69
2023-01-21T20:28:20.678Z,9.79
2023-01-21T20:30:48.589Z,9.84
2023-01-21T20:33:16.944Z,9.71
2023-01-21T20:35:45.072Z,9.79
2023-01-21T20:38:13.703Z,9.41
2023-01-21T20:40:41.377Z,9.70
2023-01-21T20:43:09.653Z,9.64
2023-01-21T20:45:40.022Z,9.69
2023-01-21T20:48:07.282Z,9.75
2023-01-21T20:50:37.467Z,9.44
2023-01-21T20:53:05.156Z,9.56
2023-01-21T20:55:32.625Z,9.78
2023-01-21T20:57:59.903Z,9.76
2023-01-21T21:00:28.890Z,9.96
2023-01-21T21:02:56.394Z,9.88
2023-01-21T21:05:24.149Z,9.90
2023-01-21T21:07:51.664Z,9.10
2023-01-21T21:10:19.434Z,9.74
2023-01-21T21:12:47.354Z,9.71
2023-01-21T21:15:15.217Z,9.41
2023-01-21T21:17:43.726Z,8.93
2023-01-21T21:20:31.316Z,8.92
2023-01-21T21:22:58.759Z,8.75
2023-01-21T21:25:30.122Z,9.22
2023-01-21T21:27:58.222Z,8.81
2023-01-21T21:30:26.999Z,8.65
2023-01-21T21:32:55.404Z,8.74
2023-01-21T21:35:24.396Z,9.10
2023-01-21T21:37:52.382Z,8.23
2023-01-21T21:40:20.737Z,8.99
2023-01-21T21:43:06.621Z,8.75
2023-01-21T21:45:35.305Z,9.12
2023-01-21T21:48:21.676Z,8.33
2023-01-21T21:50:58.325Z,7.78
2023-01-21T21:53:25.614Z,8.20
2023-01-21T21:55:53.216Z,8.59
2023-01-21T21:58:20.373Z,8.65
2023-01-21T22:00:52.648Z,8.89
2023-01-21T22:03:20.197Z,8.81
2023-01-21T22:05:51.301Z,8.50
2023-01-21T22:08:18.585Z,8.82
2023-01-21T22:10:46.694Z,8.43
2023-01-21T22:13:13.882Z,8.06
2023-01-21T22:15:41.152Z,8.59
2023-01-21T22:18:08.634Z,9.18
2023-01-21T22:20:35.785Z,8.95
2023-01-21T22:23:02.961Z,8.68
2023-01-21T22:25:30.438Z,8.92
2023-01-21T22:27:58.706Z,9.39
2023-01-21T22:30:25.919Z,8.80
2023-01-21T22:32:53.398Z,9.45
2023-01-21T22:35:20.557Z,9.31
2023-01-21T22:37:47.753Z,9.47
2023-01-21T22:40:15.245Z,9.04
2023-01-21T22:42:42.434Z,9.15
2023-01-21T22:45:09.779Z,9.12
2023-01-21T22:47:37.399Z,9.27
2023-01-21T22:50:04.788Z,8.69
2023-01-21T22:52:31.977Z,9.23
2023-01-21T22:54:59.413Z,9.09
2023-01-21T22:57:26.858Z,9.54
2023-01-21T22:59:54.118Z,9.00
2023-01-21T23:02:25.379Z,8.71
2023-01-21T23:04:52.656Z,9.07
2023-01-21T23:07:19.900Z,9.23
2023-01-21T23:09:47.356Z,9.45
2023-01-21T23:12:18.780Z,9.50
2023-01-21T23:14:46.199Z,9.57
2023-01-21T23:17:14.326Z,9.56
2023-01-21T23:19:41.509Z,9.47
2023-01-21T23:22:09.078Z,9.05
2023-01-21T23:24:36.638Z,9.63
2023-01-21T23:27:03.952Z,9.52
2023-01-21T23:29:31.224Z,9.60
2023-01-21T23:31:58.744Z,9.88
2023-01-21T23:34:25.971Z,9.75
2023-01-21T23:36:53.698Z,9.52
2023-01-21T23:39:21.551Z,9.72
2023-01-21T23:41:48.714Z,9.71
2023-01-21T23:44:16.061Z,9.72
2023-01-21T23:46:43.764Z,9.02
2023-01-21T23:49:10.916Z,9.19
2023-01-21T23:51:38.101Z,8.98
2023-01-21T23:54:05.703Z,8.85
2023-01-21T23:56:32.896Z,9.20
2023-01-21T23:59:00.162Z,9.47
